Time;durP1;ratioP1;P1;durP2;ratioP2;P2;SDS_P1;SDS_P2;PMS_P1;PMS_P2;Temp;Humidity;BMP_temperature;BMP_pressure;BME280_temperature;BME280_humidity;BME280_pressure;Samples;Min_cycle;Max_cycle;Signal;HPM_P1;HPM_P2
2023/01/09 00:00:23;;;;;;;25.57;16.83;;;;;;;;;;5094758;28;20219;-85
2023/01/09 00:02:52;;;;;;;27.27;18.40;;;;;;;;;;5107697;28;20199;-82
2023/01/09 00:05:20;;;;;;;21.17;14.17;;;;;;;;;;5103073;28;20694;-83
2023/01/09 00:07:47;;;;;;;18.60;15.17;;;;;;;;;;5084578;28;20206;-82
2023/01/09 00:10:14;;;;;;;17.83;12.43;;;;;;;;;;5113942;28;20702;-82
2023/01/09 00:12:41;;;;;;;18.50;11.50;;;;;;;;;;5113340;28;20260;-82
2023/01/09 00:15:09;;;;;;;18.20;11.20;;;;;;;;;;5103102;28;20208;-83
2023/01/09 00:17:36;;;;;;;13.13;10.63;;;;;;;;;;5088940;28;20205;-82
2023/01/09 00:20:06;;;;;;;12.40;10.07;;;;;;;;;;5085207;28;20246;-82
2023/01/09 00:22:33;;;;;;;12.03;9.40;;;;;;;;;;5093130;28;20264;-83
2023/01/09 00:25:00;;;;;;;15.43;11.27;;;;;;;;;;5087715;28;20227;-83
2023/01/09 00:27:27;;;;;;;12.37;10.83;;;;;;;;;;5095754;28;20200;-83
2023/01/09 00:29:56;;;;;;;13.73;9.53;;;;;;;;;;5100792;28;20200;-84
2023/01/09 00:32:22;;;;;;;15.20;8.87;;;;;;;;;;5059252;28;20204;-83
2023/01/09 00:34:50;;;;;;;11.40;8.53;;;;;;;;;;5093788;28;20207;-84
2023/01/09 00:37:18;;;;;;;9.77;8.47;;;;;;;;;;5089033;28;20201;-83
2023/01/09 00:39:45;;;;;;;13.37;8.53;;;;;;;;;;5093166;28;20208;-83
2023/01/09 00:42:15;;;;;;;8.27;7.50;;;;;;;;;;5082170;28;20207;-82
2023/01/09 00:44:44;;;;;;;12.43;7.73;;;;;;;;;;5111844;28;20285;-83
2023/01/09 00:47:14;;;;;;;12.20;8.40;;;;;;;;;;5081060;28;20272;-83
2023/01/09 00:49:41;;;;;;;9.87;8.10;;;;;;;;;;5092839;28;20208;-82
2023/01/09 00:52:10;;;;;;;9.50;8.00;;;;;;;;;;5101565;28;20211;-84
2023/01/09 00:54:39;;;;;;;10.00;7.57;;;;;;;;;;5086082;28;20216;-83
2023/01/09 00:57:06;;;;;;;9.17;8.27;;;;;;;;;;5112269;28;20579;-83
2023/01/09 00:59:33;;;;;;;8.80;7.43;;;;;;;;;;5113109;28;20237;-83
2023/01/09 01:02:00;;;;;;;10.80;7.97;;;;;;;;;;5077834;28;20260;-83
2023/01/09 01:10:03;;;;;;;9.97;8.80;;;;;;;;;;5065445;28;20199;-84
2023/01/09 01:12:30;;;;;;;10.07;8.23;;;;;;;;;;5092572;28;20218;-83
2023/01/09 01:14:57;;;;;;;9.17;8.00;;;;;;;;;;5101818;28;20191;-84
2023/01/09 01:17:24;;;;;;;9.63;7.83;;;;;;;;;;5092483;28;20249;-84
2023/01/09 01:19:51;;;;;;;8.33;7.30;;;;;;;;;;5102325;28;20236;-84
2023/01/09 01:22:18;;;;;;;10.47;8.20;;;;;;;;;;5112801;28;20207;-84
2023/01/09 01:24:45;;;;;;;11.97;10.67;;;;;;;;;;5077775;28;20292;-83
2023/01/09 01:27:14;;;;;;;13.93;9.37;;;;;;;;;;5085017;28;20206;-84
2023/01/09 01:29:41;;;;;;;16.67;11.33;;;;;;;;;;5092655;28;20205;-84
2023/01/09 01:32:08;;;;;;;14.40;10.37;;;;;;;;;;5072074;28;20208;-85
2023/01/09 01:34:35;;;;;;;21.13;14.27;;;;;;;;;;5073813;28;20205;-85
2023/01/09 01:37:02;;;;;;;33.13;21.20;;;;;;;;;;5103303;28;20211;-85
2023/01/09 01:39:29;;;;;;;39.23;26.90;;;;;;;;;;5084725;28;20207;-86
2023/01/09 01:41:56;;;;;;;39.87;23.83;;;;;;;;;;5081184;28;20207;-85
2023/01/09 01:45:07;;;;;;;34.30;23.10;;;;;;;;;;5083733;28;20204;-85
2023/01/09 01:47:39;;;;;;;36.33;23.03;;;;;;;;;;5080464;28;20269;-86
2023/01/09 01:50:10;;;;;;;27.97;19.47;;;;;;;;;;5092083;28;20717;-86
2023/01/09 01:52:37;;;;;;;20.20;14.27;;;;;;;;;;5092370;28;20204;-86
2023/01/09 01:55:07;;;;;;;21.50;17.30;;;;;;;;;;5076361;28;20207;-86
2023/01/09 01:57:35;;;;;;;17.93;13.37;;;;;;;;;;5099762;28;20699;-86
2023/01/09 02:00:02;;;;;;;22.70;13.80;;;;;;;;;;5078552;28;20196;-87
2023/01/09 02:02:31;;;;;;;28.33;18.80;;;;;;;;;;5105420;28;20227;-89
2023/01/09 02:04:59;;;;;;;19.87;16.40;;;;;;;;;;5094556;28;20664;-87
2023/01/09 02:07:27;;;;;;;25.90;16.73;;;;;;;;;;5111502;28;20222;-88
2023/01/09 02:09:54;;;;;;;38.87;27.87;;;;;;;;;;5086825;28;20200;-87
2023/01/09 02:12:23;;;;;;;34.70;24.17;;;;;;;;;;5073630;28;20261;-88
2023/01/09 02:14:52;;;;;;;32.93;24.17;;;;;;;;;;5081561;28;20694;-88
2023/01/09 02:17:31;;;;;;;27.27;18.90;;;;;;;;;;5092399;28;20284;-88
2023/01/09 02:20:36;;;;;;;38.90;24.03;;;;;;;;;;5102629;28;20207;-88
2023/01/09 02:23:29;;;;;;;24.70;17.90;;;;;;;;;;5076881;28;20208;-89
2023/01/09 02:26:18;;;;;;;37.37;24.63;;;;;;;;;;5091539;28;20647;-89
2023/01/09 02:29:00;;;;;;;20.93;15.70;;;;;;;;;;5057913;28;20238;-89
2023/01/09 02:31:36;;;;;;;22.33;16.20;;;;;;;;;;5086801;28;20203;-89
2023/01/09 02:34:12;;;;;;;24.93;18.67;;;;;;;;;;5110927;28;20207;-89
2023/01/09 02:36:44;;;;;;;41.00;27.50;;;;;;;;;;5082686;28;20213;-90
2023/01/09 02:39:21;;;;;;;55.93;33.27;;;;;;;;;;5106090;28;20206;-90
2023/01/09 02:41:54;;;;;;;50.17;32.47;;;;;;;;;;5101144;28;20208;-90
2023/01/09 02:44:23;;;;;;;38.70;28.47;;;;;;;;;;5071604;28;20204;-91
2023/01/09 02:47:02;;;;;;;27.83;18.27;;;;;;;;;;5091710;28;20236;-91
2023/01/09 02:49:30;;;;;;;34.63;22.87;;;;;;;;;;5075101;28;20219;-91
2023/01/09 02:52:07;;;;;;;29.67;21.00;;;;;;;;;;5086488;28;20671;-91
2023/01/09 02:54:43;;;;;;;22.63;16.87;;;;;;;;;;5092171;28;20264;-91
2023/01/09 02:57:23;;;;;;;23.13;18.50;;;;;;;;;;5076068;28;20713;-91
2023/01/09 03:00:04;;;;;;;21.80;17.13;;;;;;;;;;5087983;28;20253;-90
2023/01/09 03:02:46;;;;;;;23.07;16.70;;;;;;;;;;5066007;28;20266;-91
2023/01/09 03:05:19;;;;;;;27.23;19.17;;;;;;;;;;5085162;28;20619;-91
2023/01/09 03:07:50;;;;;;;27.10;21.90;;;;;;;;;;5057734;28;20204;-90
2023/01/09 03:10:20;;;;;;;25.90;18.20;;;;;;;;;;5071161;28;20204;-90
2023/01/09 03:12:49;;;;;;;22.40;16.43;;;;;;;;;;5092035;28;20212;-90
2023/01/09 03:15:17;;;;;;;16.23;12.20;;;;;;;;;;5078589;28;20207;-89
2023/01/09 03:17:47;;;;;;;22.60;16.77;;;;;;;;;;5063496;28;20639;-90
2023/01/09 03:20:16;;;;;;;18.63;14.20;;;;;;;;;;5096064;28;20207;-89
2023/01/09 03:22:47;;;;;;;16.03;11.87;;;;;;;;;;5099173;28;20219;-89
2023/01/09 03:25:17;;;;;;;12.97;11.40;;;;;;;;;;5098297;28;20222;-88
2023/01/09 03:27:44;;;;;;;23.57;17.87;;;;;;;;;;5067147;28;20667;-89
2023/01/09 03:30:12;;;;;;;19.73;16.13;;;;;;;;;;5100098;28;20215;-89
2023/01/09 03:32:39;;;;;;;18.53;13.67;;;;;;;;;;5080634;28;20208;-89
2023/01/09 03:35:09;;;;;;;20.67;14.70;;;;;;;;;;5080479;28;20667;-90
2023/01/09 03:37:35;;;;;;;19.00;13.40;;;;;;;;;;5107327;28;20207;-89
2023/01/09 03:40:03;;;;;;;21.50;14.37;;;;;;;;;;5090019;28;20237;-88
2023/01/09 03:42:31;;;;;;;15.10;13.60;;;;;;;;;;5080103;28;20679;-89
2023/01/09 03:44:58;;;;;;;16.20;12.30;;;;;;;;;;5075353;28;20230;-89
2023/01/09 03:47:26;;;;;;;17.23;13.07;;;;;;;;;;5075966;28;20617;-88
2023/01/09 03:49:53;;;;;;;17.00;12.70;;;;;;;;;;5072258;28;20207;-88
2023/01/09 03:52:22;;;;;;;16.47;11.93;;;;;;;;;;5057985;28;20257;-89
2023/01/09 03:54:49;;;;;;;11.33;10.23;;;;;;;;;;5079610;28;20265;-88
2023/01/09 03:57:16;;;;;;;11.77;10.17;;;;;;;;;;5086495;28;20203;-88
2023/01/09 03:59:43;;;;;;;16.27;12.20;;;;;;;;;;5100588;28;20238;-88
2023/01/09 04:02:10;;;;;;;16.70;11.20;;;;;;;;;;5083458;28;20212;-88
2023/01/09 04:04:37;;;;;;;12.33;11.03;;;;;;;;;;5097974;28;20227;-88
2023/01/09 04:07:04;;;;;;;15.73;10.97;;;;;;;;;;5079698;28;20239;-87
2023/01/09 04:09:33;;;;;;;11.43;10.07;;;;;;;;;;5096172;28;20220;-88
2023/01/09 04:12:00;;;;;;;10.70;9.40;;;;;;;;;;5066200;28;20208;-87
2023/01/09 04:14:27;;;;;;;11.93;10.73;;;;;;;;;;5093188;28;20644;-89
2023/01/09 04:16:54;;;;;;;17.97;14.60;;;;;;;;;;5093213;28;20698;-89
2023/01/09 04:19:21;;;;;;;19.23;12.97;;;;;;;;;;5091640;28;20284;-90
2023/01/09 04:21:48;;;;;;;13.40;11.27;;;;;;;;;;5095319;28;20197;-90
2023/01/09 04:24:15;;;;;;;12.97;10.07;;;;;;;;;;5082776;28;20584;-90
2023/01/09 04:26:44;;;;;;;13.17;10.17;;;;;;;;;;5081452;28;20228;-89
2023/01/09 04:29:11;;;;;;;11.57;9.50;;;;;;;;;;5085538;28;20212;-89
2023/01/09 04:31:37;;;;;;;10.67;9.57;;;;;;;;;;5075733;28;20257;-86
2023/01/09 04:34:04;;;;;;;10.63;8.07;;;;;;;;;;5059834;28;20204;-87
2023/01/09 04:36:33;;;;;;;10.13;8.50;;;;;;;;;;5093601;28;20265;-87
2023/01/09 04:39:00;;;;;;;10.53;7.93;;;;;;;;;;5070732;28;20243;-85
2023/01/09 04:44:13;;;;;;;24.00;18.13;;;;;;;;;;5080127;28;20295;-87
2023/01/09 04:46:41;;;;;;;18.93;15.23;;;;;;;;;;5100845;28;20258;-87
2023/01/09 04:49:10;;;;;;;15.57;11.47;;;;;;;;;;5096795;28;20245;-87
2023/01/09 04:51:38;;;;;;;11.93;9.33;;;;;;;;;;5079965;28;20252;-87
2023/01/09 04:54:05;;;;;;;15.13;10.47;;;;;;;;;;5096122;28;20644;-87
2023/01/09 04:56:32;;;;;;;10.50;8.53;;;;;;;;;;5114071;28;20637;-87
2023/01/09 04:58:59;;;;;;;20.97;16.13;;;;;;;;;;5098801;28;20667;-88
2023/01/09 05:01:27;;;;;;;20.30;16.63;;;;;;;;;;5084189;28;20681;-88
2023/01/09 05:03:54;;;;;;;17.40;13.63;;;;;;;;;;5097447;28;20212;-87
2023/01/09 05:06:21;;;;;;;21.60;15.67;;;;;;;;;;5084012;28;20224;-90
2023/01/09 05:08:49;;;;;;;27.53;19.20;;;;;;;;;;5060828;28;20210;-86
2023/01/09 05:11:16;;;;;;;26.43;20.77;;;;;;;;;;5095109;28;20237;-84
2023/01/09 05:13:44;;;;;;;40.87;31.43;;;;;;;;;;5074531;28;20201;-83
2023/01/09 05:16:11;;;;;;;41.47;32.53;;;;;;;;;;5081742;28;20201;-84
2023/01/09 05:18:39;;;;;;;38.37;27.27;;;;;;;;;;5081597;28;20640;-84
2023/01/09 05:21:07;;;;;;;38.67;25.77;;;;;;;;;;5091223;28;20578;-83
2023/01/09 05:23:34;;;;;;;41.40;24.23;;;;;;;;;;5070948;28;20256;-83
2023/01/09 05:26:03;;;;;;;37.63;23.63;;;;;;;;;;5057353;28;20256;-82
2023/01/09 05:28:29;;;;;;;19.20;14.40;;;;;;;;;;5084681;28;20295;-83
2023/01/09 05:30:56;;;;;;;14.80;11.67;;;;;;;;;;5101967;28;20192;-83
2023/01/09 05:33:23;;;;;;;17.37;14.60;;;;;;;;;;5112927;28;20268;-82
2023/01/09 05:35:52;;;;;;;16.77;13.80;;;;;;;;;;5111926;28;20207;-82
2023/01/09 05:38:19;;;;;;;17.20;13.23;;;;;;;;;;5110596;28;20203;-82
2023/01/09 05:40:46;;;;;;;50.23;30.93;;;;;;;;;;5082628;28;20203;-83
2023/01/09 05:43:13;;;;;;;38.33;27.23;;;;;;;;;;5094303;28;20256;-82
2023/01/09 05:45:40;;;;;;;41.17;28.93;;;;;;;;;;5094147;28;20212;-83
2023/01/09 05:48:07;;;;;;;69.63;56.83;;;;;;;;;;5111707;28;20238;-82
2023/01/09 05:50:33;;;;;;;43.60;36.77;;;;;;;;;;5112221;28;20632;-82
2023/01/09 05:53:01;;;;;;;37.97;28.90;;;;;;;;;;5111906;28;20195;-82
2023/01/09 05:55:28;;;;;;;30.87;21.60;;;;;;;;;;5112333;28;20200;-82
2023/01/09 05:57:55;;;;;;;31.23;23.10;;;;;;;;;;5112527;28;20231;-81
2023/01/09 06:00:22;;;;;;;20.53;16.67;;;;;;;;;;5111859;28;20659;-82
2023/01/09 06:02:49;;;;;;;22.33;18.23;;;;;;;;;;5112139;28;20195;-82
2023/01/09 06:05:16;;;;;;;23.43;20.97;;;;;;;;;;5112362;28;20308;-83
2023/01/09 06:07:43;;;;;;;17.70;13.57;;;;;;;;;;5111169;28;20219;-83
2023/01/09 06:10:13;;;;;;;16.00;13.80;;;;;;;;;;5111893;28;20195;-83
2023/01/09 06:12:39;;;;;;;18.73;14.73;;;;;;;;;;5094178;28;20200;-83
2023/01/09 06:15:07;;;;;;;18.27;13.83;;;;;;;;;;5091313;28;20212;-82
2023/01/09 06:17:34;;;;;;;19.73;14.60;;;;;;;;;;5091081;28;20193;-82
2023/01/09 06:20:01;;;;;;;15.33;13.23;;;;;;;;;;5091518;28;20564;-82
2023/01/09 06:22:28;;;;;;;14.70;12.50;;;;;;;;;;5091349;28;20204;-83
2023/01/09 06:24:54;;;;;;;19.60;14.03;;;;;;;;;;5091454;28;20261;-83
2023/01/09 06:27:23;;;;;;;33.57;23.57;;;;;;;;;;5091032;28;20227;-83
2023/01/09 06:29:49;;;;;;;17.97;14.60;;;;;;;;;;5091047;28;20257;-83
2023/01/09 06:32:16;;;;;;;15.33;13.60;;;;;;;;;;5091280;28;20212;-83
2023/01/09 06:34:43;;;;;;;15.43;12.80;;;;;;;;;;5091432;28;20207;-82
2023/01/09 06:37:10;;;;;;;19.53;14.27;;;;;;;;;;5090900;28;20204;-83
2023/01/09 06:39:37;;;;;;;44.10;31.63;;;;;;;;;;5090900;28;20204;-82
2023/01/09 06:42:04;;;;;;;45.30;30.23;;;;;;;;;;5096666;28;20230;-83
2023/01/09 06:44:35;;;;;;;57.47;38.07;;;;;;;;;;5098749;28;20215;-83
2023/01/09 06:47:02;;;;;;;45.83;28.37;;;;;;;;;;5090332;28;20247;-83
2023/01/09 06:49:28;;;;;;;24.37;19.57;;;;;;;;;;5090622;28;20215;-83
2023/01/09 06:51:55;;;;;;;17.63;15.83;;;;;;;;;;5090717;28;20196;-83
2023/01/09 06:54:22;;;;;;;20.03;16.00;;;;;;;;;;5090289;28;20269;-83
2023/01/09 06:56:49;;;;;;;19.50;17.03;;;;;;;;;;5077493;28;20204;-83
2023/01/09 06:59:16;;;;;;;22.20;17.80;;;;;;;;;;5090847;28;20200;-83
2023/01/09 07:01:44;;;;;;;19.10;15.50;;;;;;;;;;5097869;28;20631;-83
2023/01/09 07:04:11;;;;;;;28.37;20.57;;;;;;;;;;5111429;28;20587;-83
2023/01/09 07:06:38;;;;;;;27.47;20.37;;;;;;;;;;5110762;28;20283;-83
2023/01/09 07:09:05;;;;;;;25.97;20.33;;;;;;;;;;5110479;28;20268;-83
2023/01/09 07:11:32;;;;;;;30.53;20.13;;;;;;;;;;5110351;28;20210;-83
2023/01/09 07:13:59;;;;;;;23.60;19.50;;;;;;;;;;5110998;28;20199;-83
2023/01/09 07:16:25;;;;;;;28.93;20.33;;;;;;;;;;5102253;28;20205;-83
2023/01/09 07:18:54;;;;;;;24.53;19.83;;;;;;;;;;5090859;28;20264;-84
2023/01/09 07:21:21;;;;;;;23.93;20.17;;;;;;;;;;5090496;28;20291;-83
2023/01/09 07:23:48;;;;;;;46.53;28.17;;;;;;;;;;5090087;28;20204;-84
2023/01/09 07:26:14;;;;;;;33.70;21.97;;;;;;;;;;5090144;28;20204;-83
2023/01/09 07:28:41;;;;;;;22.20;16.97;;;;;;;;;;5090641;28;20200;-83
2023/01/09 07:31:08;;;;;;;23.10;18.23;;;;;;;;;;5099369;28;20204;-82
2023/01/09 07:33:35;;;;;;;26.50;19.87;;;;;;;;;;5109694;28;20257;-83
2023/01/09 07:36:04;;;;;;;25.17;19.13;;;;;;;;;;5110607;28;20248;-83
2023/01/09 07:38:31;;;;;;;30.73;18.53;;;;;;;;;;5110552;28;20206;-83
2023/01/09 07:40:58;;;;;;;25.53;20.60;;;;;;;;;;5110177;28;20260;-83
2023/01/09 07:43:25;;;;;;;25.77;17.93;;;;;;;;;;5091957;28;20209;-83
2023/01/09 07:45:52;;;;;;;16.67;14.83;;;;;;;;;;5089531;28;20199;-83
2023/01/09 07:48:19;;;;;;;18.60;13.57;;;;;;;;;;5109890;28;20325;-84
2023/01/09 07:50:45;;;;;;;17.63;14.50;;;;;;;;;;5110799;28;20670;-83
2023/01/09 07:53:13;;;;;;;22.13;14.40;;;;;;;;;;5107178;28;20196;-83
2023/01/09 07:55:42;;;;;;;16.00;14.30;;;;;;;;;;5100356;28;20203;-83
2023/01/09 07:58:09;;;;;;;15.90;14.07;;;;;;;;;;5110454;28;20204;-83
2023/01/09 08:00:36;;;;;;;15.47;13.53;;;;;;;;;;5099791;28;20211;-83
2023/01/09 08:03:03;;;;;;;15.57;12.70;;;;;;;;;;5107577;28;20254;-83
2023/01/09 08:05:29;;;;;;;17.47;14.83;;;;;;;;;;5088813;28;20235;-83
2023/01/09 08:07:56;;;;;;;18.20;14.60;;;;;;;;;;5091455;28;20224;-83
2023/01/09 08:10:24;;;;;;;31.87;25.77;;;;;;;;;;5094107;28;20725;-84
2023/01/09 08:12:52;;;;;;;23.90;18.13;;;;;;;;;;5093623;28;20196;-84
2023/01/09 08:15:19;;;;;;;22.53;20.20;;;;;;;;;;5082251;28;20721;-83
2023/01/09 08:17:46;;;;;;;21.00;15.17;;;;;;;;;;5092725;28;20208;-83
2023/01/09 08:20:14;;;;;;;17.93;14.70;;;;;;;;;;5093792;28;20635;-83
2023/01/09 08:22:41;;;;;;;18.40;14.70;;;;;;;;;;5093743;28;20718;-83
2023/01/09 08:25:09;;;;;;;19.33;13.77;;;;;;;;;;5093665;28;20215;-83
2023/01/09 08:27:37;;;;;;;17.40;15.43;;;;;;;;;;5113172;28;20224;-83
2023/01/09 08:30:05;;;;;;;17.67;15.63;;;;;;;;;;5114069;28;20210;-83
2023/01/09 08:32:32;;;;;;;17.70;14.00;;;;;;;;;;5113914;28;20211;-83
2023/01/09 08:34:58;;;;;;;14.17;12.73;;;;;;;;;;5112581;28;20214;-83
2023/01/09 08:37:25;;;;;;;16.17;13.60;;;;;;;;;;5113977;28;20623;-83
2023/01/09 08:39:52;;;;;;;14.17;12.17;;;;;;;;;;5113513;28;20217;-84
2023/01/09 08:47:45;;;;;;;16.57;14.80;;;;;;;;;;5113762;28;20618;-83
2023/01/09 08:50:12;;;;;;;14.10;12.57;;;;;;;;;;5113540;28;20257;-83
2023/01/09 08:52:38;;;;;;;16.37;12.20;;;;;;;;;;5113829;28;20203;-84
2023/01/09 08:55:06;;;;;;;14.60;11.73;;;;;;;;;;5107262;28;20203;-83
2023/01/09 08:57:33;;;;;;;15.90;13.03;;;;;;;;;;5106768;28;20200;-84
2023/01/09 09:00:02;;;;;;;17.30;13.33;;;;;;;;;;5106471;28;20207;-83
2023/01/09 09:02:29;;;;;;;20.13;13.33;;;;;;;;;;5092692;28;20212;-84
2023/01/09 09:04:56;;;;;;;36.93;27.03;;;;;;;;;;5092887;28;20224;-84
2023/01/09 09:07:26;;;;;;;17.70;13.90;;;;;;;;;;5092590;28;20285;-83
2023/01/09 09:09:54;;;;;;;18.07;13.43;;;;;;;;;;5084810;28;20212;-84
2023/01/09 09:12:21;;;;;;;20.57;13.90;;;;;;;;;;5088339;28;20196;-84
2023/01/09 09:17:33;;;;;;;16.50;14.13;;;;;;;;;;5087746;28;20200;-84
2023/01/09 09:20:00;;;;;;;16.50;14.90;;;;;;;;;;5084106;28;20595;-83
2023/01/09 09:22:27;;;;;;;24.47;14.97;;;;;;;;;;5092303;28;20201;-84
2023/01/09 09:24:54;;;;;;;21.10;14.90;;;;;;;;;;5092455;28;20201;-84
2023/01/09 09:27:21;;;;;;;19.53;13.17;;;;;;;;;;5092700;28;20220;-83
2023/01/09 09:29:48;;;;;;;18.50;15.07;;;;;;;;;;5092828;28;20200;-84
2023/01/09 09:32:14;;;;;;;15.17;12.93;;;;;;;;;;5096336;28;20207;-84
2023/01/09 09:34:42;;;;;;;21.63;15.03;;;;;;;;;;5101291;28;20644;-84
2023/01/09 09:37:09;;;;;;;17.93;13.47;;;;;;;;;;5092300;28;20201;-85
2023/01/09 09:39:36;;;;;;;22.77;14.67;;;;;;;;;;5092024;28;20266;-83
2023/01/09 09:45:18;;;;;;;26.70;19.90;;;;;;;;;;5112262;28;20344;-84
2023/01/09 09:47:52;;;;;;;33.17;21.60;;;;;;;;;;5112686;28;20223;-84
2023/01/09 09:50:28;;;;;;;21.90;14.50;;;;;;;;;;5112174;28;20196;-83
2023/01/09 09:53:00;;;;;;;18.77;13.50;;;;;;;;;;5112296;28;20195;-84
2023/01/09 09:55:30;;;;;;;22.73;15.73;;;;;;;;;;5112482;28;20203;-84
2023/01/09 09:57:58;;;;;;;15.43;12.30;;;;;;;;;;5111558;28;21639;-84
2023/01/09 10:00:25;;;;;;;20.57;13.00;;;;;;;;;;5092174;28;20749;-84
2023/01/09 10:02:55;;;;;;;19.33;11.87;;;;;;;;;;5105020;28;20607;-84
2023/01/09 10:05:27;;;;;;;15.97;11.93;;;;;;;;;;5112588;28;20250;-84
2023/01/09 10:07:54;;;;;;;22.13;16.10;;;;;;;;;;5111493;28;20946;-84
2023/01/09 10:10:27;;;;;;;48.60;22.03;;;;;;;;;;5112074;28;20203;-84
2023/01/09 10:12:55;;;;;;;25.43;15.67;;;;;;;;;;5106423;28;20207;-84
2023/01/09 10:15:30;;;;;;;43.53;23.93;;;;;;;;;;5092214;28;20204;-84
2023/01/09 10:18:16;;;;;;;26.27;14.60;;;;;;;;;;5091381;28;20207;-85
2023/01/09 10:20:49;;;;;;;19.67;12.77;;;;;;;;;;5091488;28;20594;-84
2023/01/09 10:23:56;;;;;;;30.60;17.50;;;;;;;;;;5091476;28;20842;-84
2023/01/09 10:26:28;;;;;;;24.13;14.83;;;;;;;;;;5101995;28;20260;-84
2023/01/09 10:29:06;;;;;;;29.73;17.73;;;;;;;;;;5111272;28;20234;-84
2023/01/09 10:31:39;;;;;;;33.90;18.67;;;;;;;;;;5110828;28;20693;-84
2023/01/09 10:34:14;;;;;;;45.07;28.43;;;;;;;;;;5104608;28;20726;-84
2023/01/09 10:36:59;;;;;;;47.23;25.10;;;;;;;;;;5077411;28;20241;-84
2023/01/09 10:39:31;;;;;;;41.90;22.73;;;;;;;;;;5091207;28;20565;-84
2023/01/09 10:42:02;;;;;;;33.17;19.47;;;;;;;;;;5090994;28;20317;-84
2023/01/09 10:44:36;;;;;;;21.77;15.03;;;;;;;;;;5090726;28;20737;-85
2023/01/09 10:47:04;;;;;;;38.70;21.63;;;;;;;;;;5096887;28;20253;-84
2023/01/09 10:49:31;;;;;;;26.30;18.30;;;;;;;;;;5097921;28;20254;-84
2023/01/09 10:52:05;;;;;;;21.10;13.63;;;;;;;;;;5110253;28;20560;-84
2023/01/09 10:54:32;;;;;;;51.17;26.70;;;;;;;;;;5111300;28;20204;-83
2023/01/09 10:57:06;;;;;;;69.10;37.00;;;;;;;;;;5110720;28;20697;-84
2023/01/09 10:59:33;;;;;;;41.40;24.67;;;;;;;;;;5096894;28;20203;-83
2023/01/09 11:02:02;;;;;;;41.43;26.37;;;;;;;;;;5102024;28;20189;-84
2023/01/09 11:04:31;;;;;;;17.33;12.97;;;;;;;;;;5104339;28;20228;-84
2023/01/09 11:07:01;;;;;;;17.37;12.13;;;;;;;;;;5101070;28;20678;-84
2023/01/09 11:09:28;;;;;;;19.83;13.80;;;;;;;;;;5110907;28;20218;-84
2023/01/09 11:11:55;;;;;;;22.07;16.00;;;;;;;;;;5110503;28;20838;-83
2023/01/09 11:14:26;;;;;;;27.40;18.03;;;;;;;;;;5111134;28;20200;-84
2023/01/09 11:16:54;;;;;;;29.73;21.50;;;;;;;;;;5099533;28;20207;-84
2023/01/09 11:19:21;;;;;;;29.47;18.63;;;;;;;;;;5090607;28;20200;-83
2023/01/09 11:21:48;;;;;;;25.13;17.23;;;;;;;;;;5090221;28;20245;-84
2023/01/09 11:24:28;;;;;;;25.90;17.90;;;;;;;;;;5096093;28;20211;-83
2023/01/09 11:27:22;;;;;;;29.07;18.93;;;;;;;;;;5111139;28;20203;-84
2023/01/09 11:30:05;;;;;;;23.30;16.67;;;;;;;;;;5098686;28;20703;-83
2023/01/09 11:32:32;;;;;;;25.17;16.03;;;;;;;;;;5090666;28;20211;-84
2023/01/09 11:34:59;;;;;;;21.33;15.50;;;;;;;;;;5090390;28;20204;-83
2023/01/09 11:37:29;;;;;;;22.90;14.70;;;;;;;;;;5090725;28;20284;-83
2023/01/09 11:40:48;;;;;;;20.73;14.63;;;;;;;;;;5090670;28;20210;-83
2023/01/09 11:46:40;;;;;;;21.73;16.83;;;;;;;;;;5094489;28;20591;-82
2023/01/09 11:49:21;;;;;;;23.70;18.97;;;;;;;;;;5094458;28;20232;-84
2023/01/09 11:52:05;;;;;;;26.23;20.27;;;;;;;;;;5094190;28;20690;-83
2023/01/09 11:54:32;;;;;;;24.10;16.47;;;;;;;;;;5094345;28;20204;-84
2023/01/09 11:57:00;;;;;;;28.17;16.17;;;;;;;;;;5094228;28;20277;-83
2023/01/09 11:59:28;;;;;;;24.10;14.57;;;;;;;;;;5093558;28;20679;-83
2023/01/09 12:02:12;;;;;;;26.83;17.00;;;;;;;;;;5094128;28;20205;-83
2023/01/09 12:04:43;;;;;;;25.33;14.20;;;;;;;;;;5093776;28;20220;-83
2023/01/09 12:07:43;;;;;;;25.10;15.13;;;;;;;;;;5093925;28;20667;-84
2023/01/09 12:10:28;;;;;;;27.17;15.57;;;;;;;;;;5025071;28;20203;-84
2023/01/09 12:12:58;;;;;;;31.23;15.93;;;;;;;;;;5108128;28;20639;-84
2023/01/09 12:15:28;;;;;;;26.83;15.87;;;;;;;;;;5107916;28;20211;-83
2023/01/09 12:18:09;;;;;;;28.40;15.93;;;;;;;;;;5114127;28;20196;-84
2023/01/09 12:20:50;;;;;;;26.03;14.87;;;;;;;;;;5113902;28;20221;-84
2023/01/09 12:23:28;;;;;;;26.30;16.37;;;;;;;;;;5114278;28;20281;-83
2023/01/09 12:26:02;;;;;;;30.23;18.30;;;;;;;;;;5080809;28;20269;-84
2023/01/09 12:28:51;;;;;;;32.03;18.00;;;;;;;;;;5092139;28;20660;-84
2023/01/09 12:31:26;;;;;;;32.63;19.63;;;;;;;;;;5084101;28;20208;-84
2023/01/09 12:34:02;;;;;;;33.17;19.70;;;;;;;;;;5094293;28;20562;-84
2023/01/09 12:36:35;;;;;;;34.03;18.43;;;;;;;;;;5093611;28;20204;-84
2023/01/09 12:39:08;;;;;;;32.73;22.43;;;;;;;;;;5093060;28;20192;-83
2023/01/09 12:41:53;;;;;;;28.77;21.53;;;;;;;;;;5093522;28;20273;-85
2023/01/09 12:44:30;;;;;;;35.70;24.43;;;;;;;;;;5104901;28;20204;-84
2023/01/09 12:47:08;;;;;;;37.50;24.40;;;;;;;;;;5099893;28;20249;-84
2023/01/09 12:49:39;;;;;;;53.93;36.17;;;;;;;;;;5098041;28;20223;-83
2023/01/09 12:52:09;;;;;;;40.57;27.10;;;;;;;;;;5088646;28;20203;-83
2023/01/09 12:54:41;;;;;;;95.40;78.13;;;;;;;;;;5113425;28;20573;-84
2023/01/09 12:57:14;;;;;;;53.77;38.63;;;;;;;;;;5094443;28;20205;-84
2023/01/09 12:59:44;;;;;;;64.20;42.77;;;;;;;;;;5106122;28;20200;-84
2023/01/09 13:02:18;;;;;;;52.07;36.90;;;;;;;;;;5102475;28;20200;-84
2023/01/09 13:04:53;;;;;;;45.50;31.43;;;;;;;;;;5111694;28;20446;-84
2023/01/09 13:07:21;;;;;;;71.43;47.63;;;;;;;;;;5100019;28;20204;-84
2023/01/09 13:09:52;;;;;;;40.03;24.77;;;;;;;;;;5087390;28;20276;-83
2023/01/09 13:12:20;;;;;;;31.77;20.07;;;;;;;;;;5098265;28;20196;-83
2023/01/09 13:14:53;;;;;;;37.50;24.80;;;;;;;;;;5092546;28;20204;-83
2023/01/09 13:17:25;;;;;;;39.73;25.97;;;;;;;;;;5092568;28;20208;-84
2023/01/09 13:19:53;;;;;;;41.97;27.57;;;;;;;;;;5103008;28;20212;-84
2023/01/09 13:22:21;;;;;;;43.40;26.33;;;;;;;;;;5112443;28;20234;-84
2023/01/09 13:25:20;;;;;;;38.93;22.90;;;;;;;;;;5112461;28;20963;-84
2023/01/09 13:27:54;;;;;;;32.70;20.40;;;;;;;;;;5047907;28;20208;-84
2023/01/09 13:30:35;;;;;;;31.87;20.33;;;;;;;;;;5092321;28;20234;-83
2023/01/09 13:33:09;;;;;;;31.37;20.03;;;;;;;;;;5092420;28;20571;-85
2023/01/09 13:35:49;;;;;;;33.57;21.40;;;;;;;;;;5092102;28;20204;-84
2023/01/09 13:38:18;;;;;;;39.50;25.47;;;;;;;;;;5092326;28;20589;-83
2023/01/09 13:40:45;;;;;;;41.30;27.47;;;;;;;;;;5100100;28;20207;-84
2023/01/09 13:43:13;;;;;;;33.40;23.20;;;;;;;;;;5096410;28;20262;-84
2023/01/09 13:45:40;;;;;;;24.70;18.87;;;;;;;;;;5088753;28;20200;-84
2023/01/09 13:48:28;;;;;;;34.27;25.13;;;;;;;;;;5108183;28;20203;-83
2023/01/09 13:51:35;;;;;;;31.00;23.23;;;;;;;;;;5083049;28;20200;-84
2023/01/09 13:54:02;;;;;;;34.73;27.40;;;;;;;;;;5092574;28;20199;-83
2023/01/09 13:56:29;;;;;;;26.23;19.07;;;;;;;;;;5108513;28;20204;-84
2023/01/09 13:59:01;;;;;;;25.13;19.17;;;;;;;;;;5092078;28;20204;-84
2023/01/09 14:01:46;;;;;;;32.07;24.47;;;;;;;;;;5091462;28;20279;-84
2023/01/09 14:04:44;;;;;;;28.37;19.90;;;;;;;;;;5091630;28;20203;-84
2023/01/09 14:07:30;;;;;;;27.70;20.17;;;;;;;;;;5079772;28;20207;-85
2023/01/09 14:10:00;;;;;;;24.83;19.27;;;;;;;;;;5079810;28;20234;-85
2023/01/09 14:12:29;;;;;;;28.37;20.73;;;;;;;;;;5091976;28;20254;-84
2023/01/09 14:14:58;;;;;;;26.57;17.80;;;;;;;;;;5091231;28;20254;-85
2023/01/09 14:17:32;;;;;;;25.47;17.57;;;;;;;;;;5091542;28;20201;-84
2023/01/09 14:20:00;;;;;;;26.07;20.03;;;;;;;;;;5091773;28;20204;-84
2023/01/09 14:22:31;;;;;;;23.77;16.93;;;;;;;;;;5091266;28;20200;-84
2023/01/09 14:25:03;;;;;;;52.47;43.83;;;;;;;;;;5079510;28;20201;-85
2023/01/09 14:28:07;;;;;;;84.33;57.73;;;;;;;;;;5111389;28;20207;-84
2023/01/09 14:30:36;;;;;;;32.77;20.73;;;;;;;;;;5097771;28;20222;-85
2023/01/09 14:33:04;;;;;;;29.73;21.60;;;;;;;;;;5112043;28;20249;-84
2023/01/09 14:35:41;;;;;;;91.73;78.93;;;;;;;;;;5083320;28;20200;-85
2023/01/09 14:38:29;;;;;;;29.83;23.20;;;;;;;;;;5085302;28;20209;-84
2023/01/09 14:41:00;;;;;;;25.53;17.80;;;;;;;;;;5080084;28;20257;-84
2023/01/09 14:43:33;;;;;;;20.20;14.50;;;;;;;;;;5091134;28;20299;-84
2023/01/09 14:46:05;;;;;;;26.10;17.37;;;;;;;;;;5101802;28;20203;-84
2023/01/09 14:48:32;;;;;;;40.97;28.67;;;;;;;;;;5111122;28;20199;-84
2023/01/09 14:50:59;;;;;;;27.77;19.40;;;;;;;;;;5110939;28;20215;-85
2023/01/09 14:53:27;;;;;;;28.93;20.40;;;;;;;;;;5097514;28;20576;-84
2023/01/09 14:55:56;;;;;;;27.00;19.50;;;;;;;;;;5111553;28;20204;-84
2023/01/09 14:58:24;;;;;;;36.87;24.97;;;;;;;;;;5097695;28;20203;-84
2023/01/09 15:01:02;;;;;;;31.57;19.83;;;;;;;;;;5097814;28;20204;-84